sensor_id;sensor_type;location;lat;lon;timestamp;temperature;humidity
49148;DHT22;41980;45.550;12.070;2022-10-16T00:01:18;17.90;71.50
49148;DHT22;41980;45.550;12.070;2022-10-16T00:07:21;17.90;71.50
49148;DHT22;41980;45.550;12.070;2022-10-16T00:13:23;17.90;71.60
49148;DHT22;41980;45.550;12.070;2022-10-16T00:19:25;17.90;71.50
49148;DHT22;41980;45.550;12.070;2022-10-16T00:25:28;17.80;71.50
49148;DHT22;41980;45.550;12.070;2022-10-16T00:31:30;17.90;71.60
49148;DHT22;41980;45.550;12.070;2022-10-16T00:37:32;17.90;71.60
49148;DHT22;41980;45.550;12.070;2022-10-16T00:49:40;17.90;71.50
49148;DHT22;41980;45.550;12.070;2022-10-16T00:55:42;17.90;71.50
49148;DHT22;41980;45.550;12.070;2022-10-16T01:01:44;17.90;71.60
49148;DHT22;41980;45.550;12.070;2022-10-16T01:13:55;17.90;71.60
49148;DHT22;41980;45.550;12.070;2022-10-16T01:20:02;17.90;71.60
49148;DHT22;41980;45.550;12.070;2022-10-16T01:32:19;17.90;71.60
49148;DHT22;41980;45.550;12.070;2022-10-16T01:38:29;17.80;71.80
49148;DHT22;41980;45.550;12.070;2022-10-16T01:44:34;17.80;71.90
49148;DHT22;41980;45.550;12.070;2022-10-16T01:50:40;17.80;72.00
49148;DHT22;41980;45.550;12.070;2022-10-16T01:56:43;17.70;72.30
49148;DHT22;41980;45.550;12.070;2022-10-16T02:02:49;17.80;73.00
49148;DHT22;41980;45.550;12.070;2022-10-16T02:08:51;17.70;73.10
49148;DHT22;41980;45.550;12.070;2022-10-16T02:14:55;17.70;74.70
49148;DHT22;41980;45.550;12.070;2022-10-16T02:27:10;17.60;74.40
49148;DHT22;41980;45.550;12.070;2022-10-16T02:33:13;17.60;73.60
49148;DHT22;41980;45.550;12.070;2022-10-16T02:39:17;17.50;74.10
49148;DHT22;41980;45.550;12.070;2022-10-16T02:45:22;17.50;74.70
49148;DHT22;41980;45.550;12.070;2022-10-16T02:51:24;17.50;74.90
49148;DHT22;41980;45.550;12.070;2022-10-16T02:57:26;17.50;74.10
49148;DHT22;41980;45.550;12.070;2022-10-16T03:03:28;17.60;73.70
49148;DHT22;41980;45.550;12.070;2022-10-16T03:09:30;17.60;74.30
49148;DHT22;41980;45.550;12.070;2022-10-16T03:15:32;17.60;76.60
49148;DHT22;41980;45.550;12.070;2022-10-16T03:21:34;17.50;74.50
49148;DHT22;41980;45.550;12.070;2022-10-16T03:27:36;17.50;75.20
49148;DHT22;41980;45.550;12.070;2022-10-16T03:33:38;17.50;74.70
49148;DHT22;41980;45.550;12.070;2022-10-16T03:39:40;17.50;74.90
49148;DHT22;41980;45.550;12.070;2022-10-16T03:45:43;17.50;75.10
49148;DHT22;41980;45.550;12.070;2022-10-16T03:51:45;17.50;76.00
49148;DHT22;41980;45.550;12.070;2022-10-16T03:57:47;17.40;74.90
49148;DHT22;41980;45.550;12.070;2022-10-16T04:03:48;17.40;75.00
49148;DHT22;41980;45.550;12.070;2022-10-16T04:09:51;17.30;75.60
49148;DHT22;41980;45.550;12.070;2022-10-16T04:15:53;17.20;76.30
49148;DHT22;41980;45.550;12.070;2022-10-16T04:21:55;17.00;75.80
49148;DHT22;41980;45.550;12.070;2022-10-16T04:27:57;17.00;76.00
49148;DHT22;41980;45.550;12.070;2022-10-16T04:33:59;16.90;77.80
49148;DHT22;41980;45.550;12.070;2022-10-16T04:40:01;16.80;77.00
49148;DHT22;41980;45.550;12.070;2022-10-16T04:46:04;16.70;76.90
49148;DHT22;41980;45.550;12.070;2022-10-16T04:52:06;16.60;77.10
49148;DHT22;41980;45.550;12.070;2022-10-16T04:58:11;16.50;77.80
49148;DHT22;41980;45.550;12.070;2022-10-16T05:04:14;16.50;77.60
49148;DHT22;41980;45.550;12.070;2022-10-16T05:10:17;16.40;78.30
49148;DHT22;41980;45.550;12.070;2022-10-16T05:16:18;16.40;78.20
49148;DHT22;41980;45.550;12.070;2022-10-16T05:22:21;16.30;79.10
49148;DHT22;41980;45.550;12.070;2022-10-16T05:34:28;16.30;77.40
49148;DHT22;41980;45.550;12.070;2022-10-16T05:40:31;16.20;77.10
49148;DHT22;41980;45.550;12.070;2022-10-16T05:46:33;16.20;78.50
49148;DHT22;41980;45.550;12.070;2022-10-16T05:52:35;16.10;77.50
49148;DHT22;41980;45.550;12.070;2022-10-16T05:58:38;16.10;79.50
49148;DHT22;41980;45.550;12.070;2022-10-16T06:04:42;16.20;77.40
49148;DHT22;41980;45.550;12.070;2022-10-16T06:10:44;16.20;77.10
49148;DHT22;41980;45.550;12.070;2022-10-16T06:16:46;16.20;77.10
49148;DHT22;41980;45.550;12.070;2022-10-16T06:22:48;16.20;77.00
49148;DHT22;41980;45.550;12.070;2022-10-16T06:28:50;16.30;77.40
49148;DHT22;41980;45.550;12.070;2022-10-16T06:34:52;16.50;77.30
49148;DHT22;41980;45.550;12.070;2022-10-16T06:40:54;16.70;77.30
49148;DHT22;41980;45.550;12.070;2022-10-16T06:46:56;16.90;77.00
49148;DHT22;41980;45.550;12.070;2022-10-16T06:52:57;17.10;77.00
49148;DHT22;41980;45.550;12.070;2022-10-16T06:59:00;17.40;76.00
49148;DHT22;41980;45.550;12.070;2022-10-16T07:05:03;17.60;76.00
49148;DHT22;41980;45.550;12.070;2022-10-16T07:11:09;17.90;75.30
49148;DHT22;41980;45.550;12.070;2022-10-16T07:17:11;18.00;75.00
49148;DHT22;41980;45.550;12.070;2022-10-16T07:23:15;18.10;74.50
49148;DHT22;41980;45.550;12.070;2022-10-16T07:29:20;18.30;74.40
49148;DHT22;41980;45.550;12.070;2022-10-16T07:35:24;18.30;74.20
49148;DHT22;41980;45.550;12.070;2022-10-16T07:41:26;18.50;74.10
49148;DHT22;41980;45.550;12.070;2022-10-16T07:47:29;18.70;73.80
49148;DHT22;41980;45.550;12.070;2022-10-16T07:53:33;18.80;73.50
49148;DHT22;41980;45.550;12.070;2022-10-16T07:59:36;19.00;73.50
49148;DHT22;41980;45.550;12.070;2022-10-16T08:05:38;19.30;72.90
49148;DHT22;41980;45.550;12.070;2022-10-16T08:11:40;19.30;72.70
49148;DHT22;41980;45.550;12.070;2022-10-16T08:17:42;19.30;72.90
49148;DHT22;41980;45.550;12.070;2022-10-16T08:23:46;19.50;72.80
49148;DHT22;41980;45.550;12.070;2022-10-16T08:29:49;19.60;72.80
49148;DHT22;41980;45.550;12.070;2022-10-16T08:35:52;19.80;72.50
49148;DHT22;41980;45.550;12.070;2022-10-16T09:00:24;20.50;71.60
49148;DHT22;41980;45.550;12.070;2022-10-16T09:12:40;20.70;71.30
49148;DHT22;41980;45.550;12.070;2022-10-16T09:31:16;21.30;70.90
49148;DHT22;41980;45.550;12.070;2022-10-16T09:37:22;21.60;70.20
49148;DHT22;41980;45.550;12.070;2022-10-16T09:49:33;21.70;70.10
49148;DHT22;41980;45.550;12.070;2022-10-16T09:55:36;21.80;69.60
49148;DHT22;41980;45.550;12.070;2022-10-16T10:01:43;22.00;69.60
49148;DHT22;41980;45.550;12.070;2022-10-16T10:07:54;21.70;69.60
49148;DHT22;41980;45.550;12.070;2022-10-16T10:14:34;21.60;69.90
49148;DHT22;41980;45.550;12.070;2022-10-16T10:20:38;21.80;70.30
49148;DHT22;41980;45.550;12.070;2022-10-16T10:26:49;22.90;69.00
49148;DHT22;41980;45.550;12.070;2022-10-16T10:39:15;23.40;67.20
49148;DHT22;41980;45.550;12.070;2022-10-16T10:45:27;23.20;67.20
49148;DHT22;41980;45.550;12.070;2022-10-16T11:28:32;23.00;67.70
49148;DHT22;41980;45.550;12.070;2022-10-16T11:34:43;23.10;67.90
49148;DHT22;41980;45.550;12.070;2022-10-16T11:40:50;23.00;67.80
49148;DHT22;41980;45.550;12.070;2022-10-16T11:47:05;23.10;67.80
49148;DHT22;41980;45.550;12.070;2022-10-16T11:59:23;22.90;67.30
49148;DHT22;41980;45.550;12.070;2022-10-16T12:11:37;22.90;67.80
49148;DHT22;41980;45.550;12.070;2022-10-16T12:17:40;23.00;67.10
49148;DHT22;41980;45.550;12.070;2022-10-16T12:23:53;23.10;67.00
49148;DHT22;41980;45.550;12.070;2022-10-16T12:29:58;23.10;66.60
49148;DHT22;41980;45.550;12.070;2022-10-16T12:36:05;23.10;66.60
49148;DHT22;41980;45.550;12.070;2022-10-16T12:48:22;23.00;66.40
49148;DHT22;41980;45.550;12.070;2022-10-16T12:54:29;22.80;66.70
49148;DHT22;41980;45.550;12.070;2022-10-16T13:12:52;22.30;67.00
49148;DHT22;41980;45.550;12.070;2022-10-16T13:31:19;22.30;67.20
49148;DHT22;41980;45.550;12.070;2022-10-16T13:37:23;22.20;67.20
49148;DHT22;41980;45.550;12.070;2022-10-16T13:49:34;22.30;67.40
49148;DHT22;41980;45.550;12.070;2022-10-16T13:55:37;22.30;67.40
49148;DHT22;41980;45.550;12.070;2022-10-16T14:01:42;22.30;67.60
49148;DHT22;41980;45.550;12.070;2022-10-16T14:07:50;22.40;67.60
49148;DHT22;41980;45.550;12.070;2022-10-16T14:13:54;22.50;67.50
49148;DHT22;41980;45.550;12.070;2022-10-16T14:19:59;22.50;67.60
49148;DHT22;41980;45.550;12.070;2022-10-16T14:26:07;22.50;67.60
49148;DHT22;41980;45.550;12.070;2022-10-16T14:32:23;22.60;67.70
49148;DHT22;41980;45.550;12.070;2022-10-16T14:38:29;22.50;67.70
49148;DHT22;41980;45.550;12.070;2022-10-16T14:44:33;22.40;67.80
49148;DHT22;41980;45.550;12.070;2022-10-16T14:50:37;22.40;68.00
49148;DHT22;41980;45.550;12.070;2022-10-16T15:02:50;22.20;68.10
49148;DHT22;41980;45.550;12.070;2022-10-16T15:08:53;22.00;68.30
49148;DHT22;41980;45.550;12.070;2022-10-16T15:14:55;22.00;68.40
49148;DHT22;41980;45.550;12.070;2022-10-16T15:20:57;21.80;68.60
49148;DHT22;41980;45.550;12.070;2022-10-16T15:26:59;21.70;68.80
49148;DHT22;41980;45.550;12.070;2022-10-16T15:33:03;21.50;68.90
49148;DHT22;41980;45.550;12.070;2022-10-16T15:45:15;21.20;69.30
49148;DHT22;41980;45.550;12.070;2022-10-16T15:51:18;21.00;69.40
49148;DHT22;41980;45.550;12.070;2022-10-16T15:57:20;20.90;69.60
49148;DHT22;41980;45.550;12.070;2022-10-16T16:03:23;20.70;69.80
49148;DHT22;41980;45.550;12.070;2022-10-16T16:09:25;20.50;70.00
49148;DHT22;41980;45.550;12.070;2022-10-16T16:15:29;20.30;70.00
49148;DHT22;41980;45.550;12.070;2022-10-16T16:21:33;20.20;70.20
49148;DHT22;41980;45.550;12.070;2022-10-16T16:27:35;19.90;70.40
49148;DHT22;41980;45.550;12.070;2022-10-16T16:33:43;19.70;70.60
49148;DHT22;41980;45.550;12.070;2022-10-16T16:39:45;19.60;70.80
49148;DHT22;41980;45.550;12.070;2022-10-16T16:45:47;19.40;71.10
49148;DHT22;41980;45.550;12.070;2022-10-16T16:51:49;19.30;71.20
49148;DHT22;41980;45.550;12.070;2022-10-16T16:57:54;19.20;71.40
49148;DHT22;41980;45.550;12.070;2022-10-16T17:04:00;19.10;71.50
49148;DHT22;41980;45.550;12.070;2022-10-16T17:10:07;19.00;71.60
49148;DHT22;41980;45.550;12.070;2022-10-16T17:16:11;19.00;71.80
49148;DHT22;41980;45.550;12.070;2022-10-16T17:22:14;18.80;71.90
49148;DHT22;41980;45.550;12.070;2022-10-16T17:28:19;18.70;72.10
49148;DHT22;41980;45.550;12.070;2022-10-16T17:34:21;18.70;72.20
49148;DHT22;41980;45.550;12.070;2022-10-16T17:40:25;18.60;72.60
49148;DHT22;41980;45.550;12.070;2022-10-16T17:46:27;18.50;72.60
49148;DHT22;41980;45.550;12.070;2022-10-16T17:52:30;18.50;72.70
49148;DHT22;41980;45.550;12.070;2022-10-16T17:58:33;18.50;72.90
49148;DHT22;41980;45.550;12.070;2022-10-16T18:04:35;18.40;73.10
49148;DHT22;41980;45.550;12.070;2022-10-16T18:10:45;18.30;73.30
49148;DHT22;41980;45.550;12.070;2022-10-16T18:16:49;18.20;73.30
49148;DHT22;41980;45.550;12.070;2022-10-16T18:22:53;18.30;73.60
49148;DHT22;41980;45.550;12.070;2022-10-16T18:28:57;18.20;73.60
49148;DHT22;41980;45.550;12.070;2022-10-16T18:34:59;18.10;73.80
49148;DHT22;41980;45.550;12.070;2022-10-16T18:41:01;18.10;73.80
49148;DHT22;41980;45.550;12.070;2022-10-16T18:47:06;18.00;74.00
49148;DHT22;41980;45.550;12.070;2022-10-16T18:53:08;18.00;74.20
49148;DHT22;41980;45.550;12.070;2022-10-16T18:59:11;17.90;74.30
49148;DHT22;41980;45.550;12.070;2022-10-16T19:05:13;17.90;74.50
49148;DHT22;41980;45.550;12.070;2022-10-16T19:11:17;17.80;74.50
49148;DHT22;41980;45.550;12.070;2022-10-16T19:17:21;17.70;74.70
49148;DHT22;41980;45.550;12.070;2022-10-16T19:23:22;17.70;75.20
49148;DHT22;41980;45.550;12.070;2022-10-16T19:29:25;17.70;74.70
49148;DHT22;41980;45.550;12.070;2022-10-16T19:35:27;17.60;74.90
49148;DHT22;41980;45.550;12.070;2022-10-16T19:41:31;17.60;76.40
49148;DHT22;41980;45.550;12.070;2022-10-16T19:47:33;17.50;76.90
49148;DHT22;41980;45.550;12.070;2022-10-16T19:53:37;17.50;75.50
49148;DHT22;41980;45.550;12.070;2022-10-16T19:59:40;17.50;76.00
49148;DHT22;41980;45.550;12.070;2022-10-16T20:11:52;17.50;75.60
49148;DHT22;41980;45.550;12.070;2022-10-16T20:17:54;17.40;75.30
49148;DHT22;41980;45.550;12.070;2022-10-16T20:23:58;17.30;75.70
49148;DHT22;41980;45.550;12.070;2022-10-16T20:30:04;17.20;75.80
49148;DHT22;41980;45.550;12.070;2022-10-16T20:36:10;17.20;76.10
49148;DHT22;41980;45.550;12.070;2022-10-16T20:42:13;17.10;76.70
49148;DHT22;41980;45.550;12.070;2022-10-16T20:48:15;17.10;77.90
49148;DHT22;41980;45.550;12.070;2022-10-16T20:54:17;17.00;76.90
49148;DHT22;41980;45.550;12.070;2022-10-16T21:00:20;17.00;77.40
49148;DHT22;41980;45.550;12.070;2022-10-16T21:06:22;17.00;76.30
49148;DHT22;41980;45.550;12.070;2022-10-16T21:12:25;16.90;76.50
49148;DHT22;41980;45.550;12.070;2022-10-16T21:18:27;16.90;76.60
49148;DHT22;41980;45.550;12.070;2022-10-16T21:24:29;16.90;76.30
49148;DHT22;41980;45.550;12.070;2022-10-16T21:30:31;16.90;76.40
49148;DHT22;41980;45.550;12.070;2022-10-16T21:36:37;16.90;76.70
49148;DHT22;41980;45.550;12.070;2022-10-16T21:42:40;16.80;76.30
49148;DHT22;41980;45.550;12.070;2022-10-16T21:48:42;16.80;76.40
49148;DHT22;41980;45.550;12.070;2022-10-16T21:54:44;16.70;76.50
49148;DHT22;41980;45.550;12.070;2022-10-16T22:00:46;16.70;76.50
49148;DHT22;41980;45.550;12.070;2022-10-16T22:06:48;16.70;76.50
49148;DHT22;41980;45.550;12.070;2022-10-16T22:12:50;16.60;76.80
49148;DHT22;41980;45.550;12.070;2022-10-16T22:18:55;16.60;76.90
49148;DHT22;41980;45.550;12.070;2022-10-16T22:24:58;16.50;77.10
49148;DHT22;41980;45.550;12.070;2022-10-16T22:31:00;16.50;77.10
49148;DHT22;41980;45.550;12.070;2022-10-16T22:37:03;16.50;77.30
49148;DHT22;41980;45.550;12.070;2022-10-16T22:43:05;16.50;78.20
49148;DHT22;41980;45.550;12.070;2022-10-16T22:49:07;16.50;78.00
49148;DHT22;41980;45.550;12.070;2022-10-16T22:55:10;16.40;77.40
49148;DHT22;41980;45.550;12.070;2022-10-16T23:01:15;16.40;77.20
49148;DHT22;41980;45.550;12.070;2022-10-16T23:07:17;16.40;77.20
49148;DHT22;41980;45.550;12.070;2022-10-16T23:13:19;16.50;77.40
49148;DHT22;41980;45.550;12.070;2022-10-16T23:19:21;16.60;78.00
49148;DHT22;41980;45.550;12.070;2022-10-16T23:25:23;16.70;77.60
49148;DHT22;41980;45.550;12.070;2022-10-16T23:31:26;16.90;77.00
49148;DHT22;41980;45.550;12.070;2022-10-16T23:37:29;17.00;78.20
49148;DHT22;41980;45.550;12.070;2022-10-16T23:43:31;17.00;76.90
49148;DHT22;41980;45.550;12.070;2022-10-16T23:49:33;17.10;78.70
49148;DHT22;41980;45.550;12.070;2022-10-16T23:55:36;17.20;77.20
